Ukiah, CA

4:53 PM PDT on August 20, 2014 (GMT -0700)
Ukiah Municipal | Change Station
CLOSE
Current Station
Airport
Location: Ukiah,
Elevation: 614 ft
Nearby Weather Stations

Elev 614 ft 39.13 °N, 123.20 °W | Updated 57 minutes ago

Clear
Clear
84 °F
Feels Like 83 °F
N
9
Wind Variable Wind from SE

Today
High -- | Low -- °F
--% Chance of Precip.
Yesterday
High -- | Low -- °F
Precip. -- in
6:30 AM 8:00 PM
Waning Crescent, 18% visible
Pressure 29.82 in
Visibility 10.0 miles
Clouds Clear
Heat Index 83 °F
Dew Point 57 °F
Humidity 40%
Rainfall 0.00 in
Snow Depth Not available.
UV 6 out of 12
Pollen 6.90 out of 12
Air Quality Not available.
Flu Activity Not available.
METAR KUKI 202256Z AUTO 13008KT 10SM CLR 29/14 A2984 RMK AO2 SLP096 T02890139

More Conditions Fewer Conditions

Pressure 29.82 in
Visibility 10.0 miles
Clouds Clear
Heat Index 83 °F
Dew Point 57 °F
Humidity 40%
Rainfall 0.00 in
Snow Depth Not available.
UV 6 out of 12
Pollen 6.90 out of 12
Air Quality Not available.
Flu Activity Not available.
METAR KUKI 202256Z AUTO 13008KT 10SM CLR 29/14 A2984 RMK AO2 SLP096 T02890139

More Conditions Fewer Conditions

10-Day Weather Forecast

Almanac

Astronomy

Aug. 20, 2014 Rise Set
Actual Time 6:30 AM PDT 8:00 PM PDT
Civil Twilight 6:02 AM PDT 8:29 PM PDT
Nautical Twilight 5:28 AM PDT 9:02 PM PDT
Astronomical Twilight 4:52 AM PDT 9:38 PM PDT
Moon 2:15 AM PDT 4:49 PM PDT
Length of Visible Light 14h 26m
Length of Day
13h 30m
Tomorrow will be 2m 19s shorter.
Waning Crescent, 18% of the Moon is Illuminated
Today
Waning Crescent
Aug 25
New
Sep 2
First Quarter
Sep 8
Full
Sep 15
Last Quarter

Today's Extremes

State Highs State Lows

Community

WunderPhotos

Upload Photos

1,745,801 photos uploaded!

Nearby

Snow Depth

Station Depth Elevation
Adin Mountain 0 in 6200 ft
Leavitt Lake 0 in 9400 ft
Leavitt Meadows 0 in 7200 ft
Cedar Pass 0 in 7100 ft

Earthquake Activity

City Distance Mag. Time & Date
The Geysers, California 35 miles 2.6 8:55 PM PDT
2014-08-13
Rio Dell, California 95 miles 2.5 6:16 PM PDT
2014-08-13
Minimum magnitude displayed is 2.5.

Coastal Water Temperatures

Place Temperature
Arena Cove, CA 57.9 °F
North Spit, CA 57.0 °F
Point Reyes, CA 60.1 °F
San Francisco, CA 64.9 °F
Richmond, CA 66.0 °F

Nearby Weather Stations